Time;durP1;ratioP1;P1;durP2;ratioP2;P2;SDS_P1;SDS_P2;PMS_P1;PMS_P2;Temp;Humidity;BMP_temperature;BMP_pressure;BME280_temperature;BME280_humidity;BME280_pressure;Samples;Min_cycle;Max_cycle;Signal;HPM_P1;HPM_P2
2023/03/21 00:01:14;;;;;;;3.42;1.70;;;20.40;66.00;;;;;;4777683;29;92216;-89
2023/03/21 00:03:42;;;;;;;4.50;2.25;;;20.50;66.10;;;;;;4775676;29;96275;-90
2023/03/21 00:06:10;;;;;;;4.20;2.85;;;20.40;66.10;;;;;;4775151;29;96043;-90
2023/03/21 00:08:36;;;;;;;3.75;2.50;;;20.40;66.10;;;;;;4776347;29;92662;-91
2023/03/21 00:11:04;;;;;;;3.47;2.50;;;20.40;66.00;;;;;;4776482;29;91691;-91
2023/03/21 00:13:31;;;;;;;3.63;1.90;;;20.40;66.10;;;;;;4776839;29;95412;-90
2023/03/21 00:16:02;;;;;;;4.53;2.40;;;20.40;66.30;;;;;;4775373;29;95217;-89
2023/03/21 00:18:28;;;;;;;5.03;2.58;;;20.30;66.10;;;;;;4784450;29;93577;-90
2023/03/21 00:21:14;;;;;;;4.28;2.30;;;20.30;66.10;;;;;;4786722;29;92050;-91
2023/03/21 00:23:41;;;;;;;4.43;2.40;;;20.30;66.00;;;;;;4761230;29;95442;-90
2023/03/21 00:26:08;;;;;;;4.40;2.30;;;20.30;66.00;;;;;;4769628;29;95217;-90
2023/03/21 00:28:38;;;;;;;3.97;2.42;;;20.30;66.10;;;;;;4784418;29;92572;-89
2023/03/21 00:31:05;;;;;;;3.67;2.20;;;20.30;65.90;;;;;;4787122;29;92442;-91
2023/03/21 00:33:32;;;;;;;3.17;2.30;;;20.30;66.00;;;;;;4769169;29;96626;-90
2023/03/21 00:35:57;;;;;;;4.30;2.30;;;20.30;66.00;;;;;;4774111;29;96247;-91
2023/03/21 00:38:23;;;;;;;3.45;2.30;;;20.30;66.00;;;;;;4765946;29;92467;-90
2023/03/21 00:40:49;;;;;;;3.53;2.42;;;20.30;66.00;;;;;;4760368;29;92278;-90
2023/03/21 00:43:22;;;;;;;3.60;2.42;;;20.20;66.00;;;;;;4803981;29;94657;-90
2023/03/21 00:46:02;;;;;;;3.78;2.42;;;20.20;65.80;;;;;;4786275;29;95879;-90
2023/03/21 00:48:28;;;;;;;4.47;2.75;;;20.20;66.00;;;;;;4773690;29;92771;-89
2023/03/21 00:50:56;;;;;;;3.00;2.00;;;20.20;65.90;;;;;;4789936;29;92491;-90
2023/03/21 00:53:22;;;;;;;4.90;2.45;;;20.20;65.90;;;;;;4799129;29;96550;-90
2023/03/21 00:55:48;;;;;;;4.35;2.40;;;20.20;65.90;;;;;;4783397;29;95003;-88
2023/03/21 00:58:14;;;;;;;3.60;2.13;;;20.20;66.00;;;;;;4784686;29;92638;-90
2023/03/21 01:00:40;;;;;;;3.40;2.03;;;20.10;65.90;;;;;;4783879;29;91783;-91
2023/03/21 01:03:09;;;;;;;3.72;2.25;;;20.10;66.10;;;;;;4783499;29;96063;-90
2023/03/21 01:08:28;;;;;;;2.47;1.83;;;20.10;65.90;;;;;;4785186;29;92964;-91
2023/03/21 01:10:55;;;;;;;3.67;2.47;;;20.10;66.00;;;;;;4783527;29;92100;-91
2023/03/21 01:13:22;;;;;;;3.55;2.08;;;20.10;65.90;;;;;;4784304;29;96726;-91
2023/03/21 01:15:54;;;;;;;5.03;2.85;;;20.10;65.70;;;;;;4791466;29;95502;-90
2023/03/21 01:18:24;;;;;;;3.35;2.05;;;20.10;65.80;;;;;;4799617;29;92718;-91
2023/03/21 01:20:50;;;;;;;4.78;2.53;;;20.10;65.90;;;;;;4783769;29;92067;-89
2023/03/21 01:23:28;;;;;;;3.17;2.25;;;20.10;65.90;;;;;;4782774;29;96827;-89
2023/03/21 01:25:55;;;;;;;3.20;2.03;;;20.10;65.90;;;;;;4799241;29;96011;-91
2023/03/21 01:28:21;;;;;;;4.40;2.00;;;20.00;65.90;;;;;;4785001;29;92074;-91
2023/03/21 01:30:51;;;;;;;2.92;2.10;;;20.10;65.90;;;;;;4767124;29;92516;-91
2023/03/21 01:33:19;;;;;;;3.58;1.92;;;20.10;67.00;;;;;;4782738;29;96470;-91
2023/03/21 01:35:45;;;;;;;4.38;2.28;;;20.00;65.90;;;;;;4789920;29;97272;-90
2023/03/21 01:38:29;;;;;;;4.47;2.28;;;20.00;66.00;;;;;;4783539;29;92653;-90
2023/03/21 01:40:55;;;;;;;5.63;2.40;;;20.00;66.10;;;;;;4783469;29;92963;-90
2023/03/21 01:43:29;;;;;;;3.65;2.20;;;20.00;65.80;;;;;;4783882;29;96627;-91
2023/03/21 01:46:20;;;;;;;3.60;2.08;;;20.00;65.80;;;;;;4782756;29;96323;-89
2023/03/21 01:48:50;;;;;;;2.70;1.75;;;19.90;65.90;;;;;;4798259;29;92070;-89
2023/03/21 01:51:17;;;;;;;4.97;2.80;;;20.00;65.90;;;;;;4798954;29;91266;-90
2023/03/21 01:53:44;;;;;;;3.35;2.13;;;20.00;65.80;;;;;;4780995;29;96047;-89
2023/03/21 01:56:27;;;;;;;3.30;2.08;;;19.90;66.10;;;;;;4781179;29;95212;-90
2023/03/21 01:58:57;;;;;;;3.20;2.03;;;19.90;66.00;;;;;;4781484;29;93218;-90
2023/03/21 02:01:23;;;;;;;4.78;2.13;;;20.00;65.80;;;;;;4782404;29;92197;-89
2023/03/21 02:03:50;;;;;;;4.45;2.25;;;19.90;66.00;;;;;;4766425;29;96436;-90
2023/03/21 02:06:39;;;;;;;2.70;1.77;;;19.90;65.70;;;;;;4781609;29;96568;-91
2023/03/21 02:09:08;;;;;;;2.97;2.00;;;19.90;65.70;;;;;;4784530;29;92486;-90
2023/03/21 02:11:45;;;;;;;2.90;1.73;;;19.90;65.90;;;;;;4776830;29;92378;-90
2023/03/21 02:14:14;;;;;;;3.90;2.53;;;19.90;65.70;;;;;;4785101;29;95431;-89
2023/03/21 02:17:05;;;;;;;3.28;2.08;;;19.90;66.50;;;;;;4779065;29;95539;-90
2023/03/21 02:19:37;;;;;;;2.97;2.03;;;19.90;65.80;;;;;;4785666;29;92587;-90
2023/03/21 02:22:39;;;;;;;3.63;2.15;;;19.90;65.80;;;;;;4777400;29;92245;-90
2023/03/21 02:28:39;;;;;;;3.70;2.15;;;19.90;65.70;;;;;;4805097;29;97275;-90
2023/03/21 02:31:27;;;;;;;3.05;1.83;;;19.90;65.70;;;;;;4786609;29;92069;-91
2023/03/21 02:35:00;;;;;;;2.70;2.00;;;19.80;65.70;;;;;;4791349;29;92511;-90
2023/03/21 02:37:38;;;;;;;3.33;2.10;;;19.80;65.70;;;;;;4663624;30;100041;-91
2023/03/21 02:40:31;;;;;;;3.45;2.10;;;19.80;66.00;;;;;;4671273;30;95090;-90
2023/03/21 02:43:18;;;;;;;3.30;1.95;;;19.80;65.80;;;;;;4646039;30;92143;-90
2023/03/21 02:46:06;;;;;;;3.88;2.15;;;19.80;65.70;;;;;;4652279;30;98787;-90
2023/03/21 02:48:38;;;;;;;3.28;1.95;;;19.80;65.60;;;;;;4652761;30;96899;-90
2023/03/21 02:51:04;;;;;;;3.67;2.05;;;19.80;65.70;;;;;;4637045;30;95270;-91
2023/03/21 02:53:35;;;;;;;2.38;1.73;;;19.80;65.70;;;;;;4659996;30;93467;-91
2023/03/21 02:56:03;;;;;;;2.75;1.98;;;19.80;65.60;;;;;;4644906;30;92595;-91
2023/03/21 02:58:31;;;;;;;2.72;2.00;;;19.80;65.50;;;;;;4637779;30;96163;-91
2023/03/21 03:00:56;;;;;;;2.28;1.73;;;19.70;65.60;;;;;;4659027;30;95780;-90
2023/03/21 03:03:22;;;;;;;4.53;2.30;;;19.70;65.70;;;;;;4646188;30;92516;-91
2023/03/21 03:06:02;;;;;;;3.20;1.90;;;19.70;65.70;;;;;;4675990;30;92607;-91
2023/03/21 03:08:52;;;;;;;2.83;1.85;;;19.70;65.60;;;;;;4672459;30;96542;-91
2023/03/21 03:11:27;;;;;;;3.30;1.80;;;19.70;66.30;;;;;;4676893;30;96093;-91
2023/03/21 03:14:05;;;;;;;2.67;1.92;;;19.70;65.70;;;;;;4689336;29;92118;-92
2023/03/21 03:16:42;;;;;;;3.20;1.98;;;19.70;65.60;;;;;;4730984;29;92125;-89
2023/03/21 03:19:12;;;;;;;4.18;2.30;;;19.70;65.60;;;;;;4735717;29;97489;-90
2023/03/21 03:21:50;;;;;;;3.15;1.83;;;19.70;65.60;;;;;;4790310;29;96463;-91
2023/03/21 03:24:37;;;;;;;2.03;1.75;;;19.70;65.80;;;;;;4798267;29;92394;-90
2023/03/21 03:57:19;;;;;;;2.92;1.80;;;19.60;65.80;;;;;;4797065;29;92167;-88
2023/03/21 03:59:48;;;;;;;2.05;1.77;;;19.60;65.90;;;;;;4786373;29;94424;-90
2023/03/21 04:02:17;;;;;;;2.97;1.80;;;19.60;65.90;;;;;;4784235;29;92324;-90
2023/03/21 04:04:42;;;;;;;3.05;1.98;;;19.60;66.00;;;;;;4785254;29;92516;-90
2023/03/21 04:15:08;;;;;;;2.72;1.65;;;19.60;65.80;;;;;;4795990;29;92534;-90
2023/03/21 04:17:34;;;;;;;2.85;1.70;;;19.50;65.90;;;;;;4782607;29;92681;-91
2023/03/21 04:19:59;;;;;;;3.00;2.10;;;19.50;65.90;;;;;;4767220;29;97647;-92
2023/03/21 04:22:25;;;;;;;3.55;1.75;;;19.50;65.90;;;;;;4747085;29;95808;-90
2023/03/21 04:24:52;;;;;;;3.08;1.98;;;19.50;65.70;;;;;;4732521;29;92685;-90
2023/03/21 04:30:40;;;;;;;2.67;1.60;;;19.50;65.90;;;;;;4746849;29;92269;-91
2023/03/21 04:33:06;;;;;;;2.42;1.73;;;19.50;65.90;;;;;;4728082;29;94877;-90
2023/03/21 04:35:33;;;;;;;2.83;1.80;;;19.50;65.80;;;;;;4713622;29;92481;-88
2023/03/21 04:37:58;;;;;;;2.65;2.00;;;19.50;65.80;;;;;;4713896;29;91821;-90
2023/03/21 04:40:24;;;;;;;2.70;1.83;;;19.50;65.80;;;;;;4714808;29;95964;-91
2023/03/21 04:42:50;;;;;;;2.65;1.90;;;19.50;65.90;;;;;;4713467;29;96696;-89
2023/03/21 04:45:16;;;;;;;2.58;1.75;;;19.50;65.80;;;;;;4698597;29;93992;-91
2023/03/21 04:47:42;;;;;;;2.63;1.73;;;19.50;65.80;;;;;;4715219;29;92100;-90
2023/03/21 04:50:09;;;;;;;2.72;1.83;;;19.50;65.80;;;;;;4703556;29;95552;-89
2023/03/21 04:52:53;;;;;;;2.38;1.50;;;19.50;65.90;;;;;;4716187;29;95850;-91
2023/03/21 04:55:20;;;;;;;4.72;2.05;;;19.50;65.80;;;;;;4747314;29;92166;-90
2023/03/21 04:57:46;;;;;;;2.63;1.67;;;19.40;65.90;;;;;;4737324;29;93075;-90
2023/03/21 05:00:13;;;;;;;3.38;1.80;;;19.40;65.70;;;;;;4746625;29;95392;-90
2023/03/21 05:02:39;;;;;;;2.30;1.95;;;19.40;65.80;;;;;;4747125;29;97093;-90
2023/03/21 05:05:15;;;;;;;;;;;;;;;;;;;;;
2023/03/21 05:07:41;;;;;;;2.55;1.70;;;19.40;65.90;;;;;;4786059;29;92208;-90
2023/03/21 05:10:10;;;;;;;2.58;1.70;;;19.40;65.70;;;;;;4767724;29;97454;-89
2023/03/21 05:15:58;;;;;;;2.47;1.48;;;19.40;65.70;;;;;;4789992;29;92548;-92
2023/03/21 05:18:25;;;;;;;2.80;2.00;;;19.40;65.60;;;;;;4801944;29;92642;-91
2023/03/21 05:20:53;;;;;;;2.58;1.50;;;19.40;65.80;;;;;;4801687;29;95181;-90
2023/03/21 05:23:19;;;;;;;2.38;1.80;;;19.40;65.60;;;;;;4785640;29;96726;-91
2023/03/21 05:25:45;;;;;;;2.83;1.88;;;19.40;65.60;;;;;;4785655;29;92430;-91
2023/03/21 05:28:10;;;;;;;2.75;1.75;;;19.40;65.50;;;;;;4802520;29;91727;-90
2023/03/21 05:30:36;;;;;;;2.78;1.75;;;19.40;65.40;;;;;;4800979;29;96942;-91
2023/03/21 05:33:02;;;;;;;2.35;1.55;;;19.40;65.40;;;;;;4785756;29;94847;-91
2023/03/21 05:35:28;;;;;;;2.67;1.60;;;19.40;65.30;;;;;;4785135;29;93619;-91
2023/03/21 05:44:52;;;;;;;2.45;1.77;;;19.30;65.40;;;;;;4806231;29;92488;-91
2023/03/21 05:47:18;;;;;;;3.00;1.60;;;19.30;65.40;;;;;;4788554;29;92535;-89
2023/03/21 05:49:44;;;;;;;4.00;1.80;;;19.40;65.20;;;;;;4789223;29;92068;-89
2023/03/21 05:52:10;;;;;;;2.17;1.52;;;19.50;65.00;;;;;;4805339;29;95165;-92
2023/03/21 05:54:36;;;;;;;3.03;1.77;;;19.50;64.80;;;;;;4780738;29;95150;-87
2023/03/21 05:57:03;;;;;;;3.30;1.80;;;19.50;64.60;;;;;;4790786;29;92147;-92
2023/03/21 05:59:28;;;;;;;2.45;1.80;;;19.60;64.50;;;;;;4789016;29;93864;-93
2023/03/21 06:12:14;;;;;;;4.97;1.60;;;20.00;63.80;;;;;;4767620;29;92121;-91
2023/03/21 06:14:40;;;;;;;4.90;1.67;;;20.00;61.90;;;;;;4767170;29;96460;-90
2023/03/21 06:17:06;;;;;;;3.38;2.00;;;20.10;62.30;;;;;;4766424;29;95651;-91
2023/03/21 06:19:31;;;;;;;3.15;1.70;;;20.10;62.80;;;;;;4772502;29;92415;-90
2023/03/21 06:21:57;;;;;;;5.63;2.20;;;20.20;62.70;;;;;;4767355;29;91673;-92
2023/03/21 06:37:48;;;;;;;4.80;1.50;;;20.10;63.60;;;;;;4804750;29;95877;-91
2023/03/21 06:40:14;;;;;;;3.92;2.13;;;20.00;63.80;;;;;;4786607;29;94706;-91
2023/03/21 06:42:40;;;;;;;4.68;2.00;;;20.00;64.10;;;;;;4788463;29;92538;-90
2023/03/21 06:45:06;;;;;;;6.65;1.77;;;19.90;64.10;;;;;;4794266;29;93394;-91
2023/03/21 06:47:32;;;;;;;5.15;1.70;;;19.90;64.30;;;;;;4788373;29;96341;-93
2023/03/21 06:49:57;;;;;;;2.50;1.60;;;20.00;64.60;;;;;;4777301;29;95173;-90
2023/03/21 06:52:23;;;;;;;3.47;1.65;;;20.00;64.40;;;;;;4776927;29;92384;-89
2023/03/21 06:54:50;;;;;;;3.15;1.73;;;20.00;64.40;;;;;;4780885;29;92081;-92
2023/03/21 06:57:16;;;;;;;5.03;1.60;;;20.00;64.60;;;;;;4780559;29;96494;-91
2023/03/21 06:59:42;;;;;;;6.93;1.77;;;19.90;64.60;;;;;;4781096;29;96314;-92
2023/03/21 07:02:10;;;;;;;5.50;1.98;;;19.90;64.70;;;;;;4783726;29;92365;-91
2023/03/21 07:04:36;;;;;;;5.03;1.85;;;20.00;64.00;;;;;;4786099;29;92838;-88
2023/03/21 07:07:01;;;;;;;4.00;2.60;;;20.00;64.70;;;;;;4783640;29;95335;-95
2023/03/21 07:09:33;;;;;;;2.97;2.10;;;20.00;64.70;;;;;;4782954;29;96267;-91
2023/03/21 07:12:02;;;;;;;4.45;1.90;;;20.00;64.90;;;;;;4786134;29;92358;-90
2023/03/21 07:14:28;;;;;;;7.43;2.13;;;20.00;64.80;;;;;;4783266;29;91872;-89
2023/03/21 07:16:56;;;;;;;3.60;1.50;;;19.90;65.10;;;;;;4783450;29;95837;-92
2023/03/21 07:19:31;;;;;;;4.60;1.95;;;19.90;65.10;;;;;;4784702;29;96076;-90
2023/03/21 07:21:57;;;;;;;2.72;1.45;;;19.90;65.10;;;;;;4782697;29;93375;-88
2023/03/21 07:24:22;;;;;;;4.47;1.98;;;20.00;65.40;;;;;;4787605;29;92328;-90
2023/03/21 07:26:48;;;;;;;4.20;1.92;;;20.00;65.40;;;;;;4802233;29;95849;-91
2023/03/21 07:29:16;;;;;;;5.55;2.20;;;20.00;65.00;;;;;;4802837;29;95841;-92
2023/03/21 07:31:47;;;;;;;4.60;2.50;;;20.00;64.40;;;;;;4788851;29;92578;-93
2023/03/21 07:34:16;;;;;;;6.25;2.22;;;19.90;64.00;;;;;;4789135;29;94900;-91
2023/03/21 07:36:42;;;;;;;;;;;20.00;63.80;;;;;;4804052;29;95464;-92
2023/03/21 07:39:07;;;;;;;5.38;2.38;;;20.00;63.50;;;;;;4803971;29;95522;-92
2023/03/21 07:41:33;;;;;;;6.15;2.45;;;20.10;63.60;;;;;;4803622;29;92520;-90
2023/03/21 07:43:59;;;;;;;7.18;2.72;;;20.10;64.00;;;;;;4802866;29;92245;-91
2023/03/21 07:46:25;;;;;;;6.07;2.53;;;20.00;64.00;;;;;;4787145;29;97545;-91
2023/03/21 07:48:50;;;;;;;8.48;2.25;;;20.10;64.50;;;;;;4795421;29;97140;-92
2023/03/21 07:51:16;;;;;;;7.28;2.45;;;20.10;64.10;;;;;;4803354;29;92607;-90
2023/03/21 07:53:44;;;;;;;8.55;3.00;;;20.20;64.70;;;;;;4773991;29;92524;-93
2023/03/21 07:56:13;;;;;;;3.17;1.98;;;20.30;64.30;;;;;;4783192;29;96345;-89
2023/03/21 07:58:47;;;;;;;6.15;2.05;;;20.40;64.20;;;;;;4802976;29;96878;-90
2023/03/21 08:01:13;;;;;;;4.32;1.92;;;20.50;64.10;;;;;;4785394;29;92481;-91
2023/03/21 08:03:39;;;;;;;4.68;2.13;;;20.70;64.10;;;;;;4783897;29;91508;-91
2023/03/21 08:06:05;;;;;;;5.72;2.40;;;20.70;64.10;;;;;;4802685;29;96614;-90
2023/03/21 08:08:31;;;;;;;8.23;2.38;;;20.80;64.20;;;;;;4788588;29;95339;-90
2023/03/21 08:25:44;;;;;;;11.77;3.55;;;20.70;64.50;;;;;;4786555;29;92320;-91
2023/03/21 08:28:09;;;;;;;11.15;3.15;;;20.80;58.60;;;;;;4771585;29;92519;-92
2023/03/21 08:30:37;;;;;;;6.05;2.67;;;20.90;57.50;;;;;;4769878;29;96821;-93
2023/03/21 08:33:13;;;;;;;;;;;;;;;;;;;;;
2023/03/21 08:35:47;;;;;;;13.32;3.55;;;21.00;56.30;;;;;;4785160;29;92253;-91
2023/03/21 08:38:13;;;;;;;12.07;3.75;;;20.80;60.30;;;;;;4769019;29;92512;-92
2023/03/21 08:40:39;;;;;;;14.27;4.07;;;20.70;61.50;;;;;;4769609;29;96245;-91
2023/03/21 08:43:04;;;;;;;9.35;3.78;;;20.60;62.40;;;;;;4769043;29;95592;-89
2023/03/21 08:45:30;;;;;;;13.63;4.28;;;20.60;63.30;;;;;;4765129;29;92078;-91
2023/03/21 08:47:56;;;;;;;9.45;3.58;;;20.60;63.40;;;;;;4768012;29;92575;-91
2023/03/21 08:50:26;;;;;;;17.60;3.85;;;20.60;63.40;;;;;;4753010;29;95135;-89
2023/03/21 09:06:32;;;;;;;14.32;4.85;;;20.60;65.30;;;;;;4766711;29;92573;-93
2023/03/21 09:08:58;;;;;;;10.85;3.75;;;20.50;64.70;;;;;;4751328;29;93495;-92
2023/03/21 09:11:24;;;;;;;11.93;4.00;;;20.50;64.70;;;;;;4767472;29;92419;-93
2023/03/21 09:13:50;;;;;;;13.27;4.40;;;20.50;64.50;;;;;;4766768;29;96835;-90
2023/03/21 09:16:16;;;;;;;16.05;4.00;;;20.50;64.70;;;;;;4771146;29;95697;-91
2023/03/21 09:18:47;;;;;;;13.20;4.50;;;20.50;65.30;;;;;;4771889;29;91966;-92
2023/03/21 09:21:15;;;;;;;12.27;4.00;;;20.50;65.40;;;;;;4771962;29;92617;-91
2023/03/21 09:23:41;;;;;;;13.43;3.63;;;20.50;65.20;;;;;;4787595;29;95440;-94
2023/03/21 09:26:08;;;;;;;13.13;4.45;;;20.60;64.90;;;;;;4803386;29;95746;-88
2023/03/21 09:28:36;;;;;;;13.95;5.22;;;20.60;64.30;;;;;;4803383;29;92753;-88
2023/03/21 09:31:02;;;;;;;16.50;4.82;;;20.60;64.00;;;;;;4774430;29;92652;-88
2023/03/21 09:33:28;;;;;;;11.98;4.75;;;20.60;64.10;;;;;;4775974;29;94521;-92
2023/03/21 09:35:55;;;;;;;9.65;4.03;;;20.60;64.20;;;;;;4769348;29;97619;-91
2023/03/21 09:38:22;;;;;;;10.48;4.13;;;20.60;64.30;;;;;;4760908;29;92226;-90
2023/03/21 09:41:03;;;;;;;13.02;4.80;;;20.60;64.50;;;;;;4739460;29;92546;-88
2023/03/21 09:43:58;;;;;;;16.25;4.10;;;20.60;64.00;;;;;;4725799;29;95773;-89
2023/03/21 09:46:56;;;;;;;10.02;3.95;;;20.60;63.80;;;;;;4739191;29;97642;-90
2023/03/21 09:53:22;;;;;;;11.73;4.05;;;20.60;64.30;;;;;;4740622;29;92089;-89
2023/03/21 09:55:48;;;;;;;11.40;3.88;;;20.50;64.30;;;;;;4645944;30;95740;-89
2023/03/21 09:58:26;;;;;;;12.25;4.03;;;20.50;64.30;;;;;;4661161;30;93144;-89
2023/03/21 10:00:59;;;;;;;12.88;4.30;;;20.60;64.40;;;;;;4660685;30;93685;-88
2023/03/21 10:10:21;;;;;;;11.57;3.50;;;20.70;64.10;;;;;;4689161;30;93084;-91
2023/03/21 10:12:49;;;;;;;13.15;4.10;;;20.70;64.00;;;;;;4710256;29;92480;-90
2023/03/21 10:15:18;;;;;;;12.63;4.07;;;20.70;64.20;;;;;;4708038;29;92911;-87
2023/03/21 10:17:59;;;;;;;13.77;4.38;;;20.70;64.50;;;;;;4707252;29;96830;-89
2023/03/21 10:20:32;;;;;;;9.55;3.92;;;20.70;64.80;;;;;;4715459;29;95191;-90
2023/03/21 10:23:00;;;;;;;8.82;3.65;;;20.70;64.20;;;;;;4694619;30;92326;-89
2023/03/21 10:25:35;;;;;;;15.90;4.45;;;20.70;64.40;;;;;;4664571;30;92287;-89
2023/03/21 10:28:02;;;;;;;22.25;5.38;;;20.70;64.50;;;;;;4662457;30;97734;-91
2023/03/21 10:30:45;;;;;;;18.70;4.35;;;20.60;64.70;;;;;;4698464;29;96139;-91
2023/03/21 10:33:15;;;;;;;12.45;3.33;;;20.60;64.60;;;;;;4689816;29;92827;-92
2023/03/21 10:42:42;;;;;;;12.10;3.63;;;20.80;62.60;;;;;;4694797;30;92674;-86
2023/03/21 10:45:19;;;;;;;17.30;3.97;;;20.70;61.90;;;;;;4683301;29;92557;-86
2023/03/21 10:47:50;;;;;;;15.05;3.72;;;20.80;61.80;;;;;;4693947;30;91525;-86
2023/03/21 10:50:19;;;;;;;15.75;3.85;;;20.80;62.10;;;;;;4693689;30;93362;-84
2023/03/21 10:52:52;;;;;;;13.48;3.70;;;20.80;61.60;;;;;;4693513;29;96399;-85
2023/03/21 10:55:32;;;;;;;21.85;4.30;;;20.70;59.90;;;;;;4728877;29;93451;-87
2023/03/21 10:58:17;;;;;;;14.65;3.97;;;20.70;60.70;;;;;;4727965;29;92130;-86
2023/03/21 11:00:45;;;;;;;13.65;3.72;;;20.70;61.80;;;;;;4714666;29;96406;-85
2023/03/21 11:03:35;;;;;;;14.35;3.50;;;20.70;62.30;;;;;;4730886;29;92739;-85
2023/03/21 11:06:21;;;;;;;11.27;3.55;;;20.70;62.20;;;;;;4785686;29;92397;-85
2023/03/21 11:08:53;;;;;;;9.32;3.30;;;20.70;62.40;;;;;;4692329;29;92755;-84
2023/03/21 11:11:27;;;;;;;13.73;3.78;;;20.60;62.70;;;;;;4692997;30;92665;-85
2023/03/21 11:14:05;;;;;;;14.07;3.47;;;20.60;63.10;;;;;;4692443;30;94226;-85
2023/03/21 11:16:40;;;;;;;10.68;3.40;;;20.60;63.30;;;;;;4677483;30;92360;-86
2023/03/21 11:19:15;;;;;;;17.23;3.72;;;20.60;63.30;;;;;;4692885;30;92813;-85
2023/03/21 11:21:41;;;;;;;15.55;3.80;;;20.60;63.60;;;;;;4678595;30;94950;-83
2023/03/21 11:24:13;;;;;;;10.90;3.38;;;20.70;63.20;;;;;;4689582;29;94290;-84
2023/03/21 11:26:43;;;;;;;14.45;3.53;;;20.70;62.80;;;;;;4729069;29;92718;-84
2023/03/21 11:29:17;;;;;;;;;;;20.80;62.60;;;;;;4728884;29;92336;-86
2023/03/21 11:31:43;;;;;;;21.90;3.55;;;20.80;61.60;;;;;;4731598;29;92803;-85
2023/03/21 11:34:26;;;;;;;15.90;3.50;;;20.80;60.30;;;;;;4729103;29;96311;-91
2023/03/21 11:36:57;;;;;;;12.35;3.65;;;20.70;60.90;;;;;;4714567;29;92507;-85
2023/03/21 11:39:30;;;;;;;10.70;3.50;;;20.70;61.40;;;;;;4734695;29;91197;-83
2023/03/21 11:41:56;;;;;;;12.25;4.07;;;20.60;61.00;;;;;;4736572;29;93625;-84
2023/03/21 11:44:42;;;;;;;15.15;4.20;;;20.60;60.90;;;;;;4725360;29;95956;-92
2023/03/21 11:47:09;;;;;;;14.20;3.63;;;20.70;61.10;;;;;;4766855;29;93558;-85
2023/03/21 11:49:35;;;;;;;13.93;4.10;;;20.70;60.00;;;;;;4766402;29;92267;-84
2023/03/21 11:52:35;;;;;;;15.48;3.60;;;20.70;60.60;;;;;;4765448;29;96724;-85
2023/03/21 11:55:19;;;;;;;9.65;3.03;;;20.80;60.60;;;;;;4780726;29;96439;-90
2023/03/21 11:58:13;;;;;;;13.65;3.97;;;20.80;59.20;;;;;;4781110;29;92551;-85
2023/03/21 12:01:01;;;;;;;9.70;3.28;;;20.70;60.20;;;;;;4765210;29;92582;-85
2023/03/21 12:04:11;;;;;;;15.77;3.17;;;20.70;59.80;;;;;;4765180;29;96802;-86
2023/03/21 12:07:00;;;;;;;19.30;3.55;;;20.80;59.20;;;;;;4766962;29;93420;-85
2023/03/21 12:09:33;;;;;;;13.85;3.55;;;20.80;59.40;;;;;;4746232;29;91938;-85
2023/03/21 12:12:22;;;;;;;15.20;4.00;;;20.70;59.90;;;;;;4736606;29;92096;-85
2023/03/21 12:14:59;;;;;;;14.07;3.90;;;20.70;59.90;;;;;;4735638;29;94720;-85
2023/03/21 12:21:25;;;;;;;10.52;3.15;;;20.70;60.20;;;;;;4746718;29;92589;-85
2023/03/21 12:24:30;;;;;;;12.10;3.45;;;20.70;60.20;;;;;;4745809;29;92360;-85
2023/03/21 12:27:07;;;;;;;14.40;3.45;;;20.70;60.20;;;;;;4667140;30;95832;-85
2023/03/21 12:29:53;;;;;;;10.65;3.22;;;20.70;60.20;;;;;;4681790;30;96094;-85
2023/03/21 12:36:26;;;;;;;12.25;3.33;;;20.70;60.20;;;;;;4682693;30;91333;-85
2023/03/21 12:39:11;;;;;;;12.13;3.55;;;20.70;60.50;;;;;;4647454;30;93666;-85
2023/03/21 12:41:52;;;;;;;9.73;3.20;;;20.70;60.50;;;;;;4647859;30;92795;-85
2023/03/21 12:44:22;;;;;;;8.57;3.17;;;20.70;60.70;;;;;;4673431;30;93585;-86
2023/03/21 12:47:29;;;;;;;11.23;3.40;;;20.70;60.80;;;;;;4708285;29;92642;-85
2023/03/21 12:50:21;;;;;;;9.25;3.28;;;20.60;60.80;;;;;;4673993;30;93421;-87
2023/03/21 12:52:58;;;;;;;11.77;3.30;;;20.70;60.40;;;;;;4674793;30;93355;-83
2023/03/21 12:55:28;;;;;;;7.90;2.85;;;20.70;60.10;;;;;;4676060;30;92744;-83
2023/03/21 12:57:54;;;;;;;11.50;3.53;;;20.80;59.50;;;;;;4659703;30;92969;-84
2023/03/21 13:00:28;;;;;;;11.18;3.65;;;20.80;59.70;;;;;;4660144;30;96379;-92
2023/03/21 13:03:05;;;;;;;14.48;3.45;;;20.70;59.40;;;;;;4691743;29;96529;-87
2023/03/21 13:06:04;;;;;;;11.02;3.40;;;20.70;60.00;;;;;;4720168;29;92703;-92
2023/03/21 13:08:40;;;;;;;9.35;3.33;;;20.80;59.50;;;;;;4697359;29;92651;-92
2023/03/21 13:11:10;;;;;;;15.40;3.95;;;20.80;59.70;;;;;;4689645;29;97616;-88
2023/03/21 13:13:55;;;;;;;9.95;3.55;;;20.80;59.20;;;;;;4718718;29;94391;-90
2023/03/21 13:23:07;;;;;;;12.02;2.80;;;20.80;59.30;;;;;;4716566;29;92543;-85
2023/03/21 13:25:42;;;;;;;12.82;3.00;;;20.80;59.10;;;;;;4713466;29;93274;-90
2023/03/21 13:28:25;;;;;;;9.52;2.90;;;20.80;59.70;;;;;;4778109;29;91930;-85
2023/03/21 13:30:51;;;;;;;8.20;3.10;;;20.80;59.00;;;;;;4807603;29;91631;-88
2023/03/21 13:33:28;;;;;;;9.88;2.90;;;20.70;58.90;;;;;;4809089;29;92950;-88
2023/03/21 13:36:05;;;;;;;10.07;3.28;;;20.70;57.80;;;;;;4808557;29;93079;-85
2023/03/21 13:38:35;;;;;;;13.00;4.03;;;20.80;59.00;;;;;;4799840;29;93729;-87
2023/03/21 13:41:14;;;;;;;12.23;3.78;;;20.80;59.20;;;;;;4794004;29;94991;-86
2023/03/21 13:44:15;;;;;;;15.00;3.80;;;20.90;59.40;;;;;;4809276;29;93284;-87
2023/03/21 13:46:53;;;;;;;9.75;3.35;;;20.80;59.40;;;;;;4808543;29;97092;-87
2023/03/21 13:49:36;;;;;;;12.52;3.45;;;20.80;59.60;;;;;;4809803;29;92461;-88
2023/03/21 13:52:26;;;;;;;12.30;3.55;;;20.80;59.90;;;;;;4808059;29;92389;-86
2023/03/21 13:54:56;;;;;;;11.57;3.40;;;20.80;59.50;;;;;;4810053;29;92751;-88
2023/03/21 13:57:37;;;;;;;7.90;3.25;;;20.90;60.00;;;;;;4798577;29;93761;-88
2023/03/21 14:00:28;;;;;;;10.63;3.25;;;20.90;59.70;;;;;;4800972;29;92653;-88
2023/03/21 14:02:56;;;;;;;9.27;2.90;;;20.90;59.80;;;;;;4801079;29;92090;-88
2023/03/21 14:05:26;;;;;;;13.50;3.45;;;20.80;59.90;;;;;;4778142;29;97545;-88
2023/03/21 14:08:07;;;;;;;7.72;2.75;;;20.80;60.30;;;;;;4803797;29;99669;-87
2023/03/21 14:10:55;;;;;;;7.05;3.08;;;20.80;60.50;;;;;;4771826;29;92846;-89
2023/03/21 14:13:24;;;;;;;5.80;2.88;;;20.80;60.70;;;;;;4743921;29;92624;-88
2023/03/21 14:15:52;;;;;;;;;;;20.80;60.60;;;;;;4760587;29;95840;-89
2023/03/21 14:18:23;;;;;;;8.18;3.03;;;20.80;60.70;;;;;;4761675;29;95550;-89
2023/03/21 14:20:57;;;;;;;8.80;3.58;;;20.80;60.70;;;;;;4759055;29;92857;-87
2023/03/21 14:23:25;;;;;;;11.68;3.22;;;20.80;60.90;;;;;;4749377;29;91567;-88
2023/03/21 14:36:17;;;;;;;10.55;2.95;;;20.90;58.90;;;;;;4756147;29;92144;-87
2023/03/21 14:38:52;;;;;;;9.32;3.05;;;20.90;57.90;;;;;;4757531;29;93660;-89
2023/03/21 14:41:27;;;;;;;9.20;3.40;;;20.90;58.70;;;;;;4762279;29;92877;-86
2023/03/21 14:44:11;;;;;;;15.95;3.45;;;20.90;59.00;;;;;;4783052;29;92119;-86
2023/03/21 15:00:25;;;;;;;11.00;3.60;;;21.40;60.10;;;;;;4768103;29;92390;-85
2023/03/21 15:02:52;;;;;;;7.65;3.95;;;21.50;60.10;;;;;;4766994;29;94775;-85
2023/03/21 15:05:30;;;;;;;12.15;3.55;;;21.40;60.60;;;;;;4766376;29;97861;-85
2023/03/21 15:08:02;;;;;;;14.93;3.95;;;21.40;60.80;;;;;;4766948;29;91896;-86
2023/03/21 15:10:30;;;;;;;10.18;3.25;;;21.40;61.10;;;;;;4767468;29;92861;-84
2023/03/21 15:13:01;;;;;;;11.60;3.47;;;21.50;61.60;;;;;;4781105;29;97386;-85
2023/03/21 15:15:28;;;;;;;12.45;3.42;;;21.40;62.10;;;;;;4764757;29;95462;-85
2023/03/21 15:17:57;;;;;;;8.73;3.08;;;21.40;62.40;;;;;;4768630;29;92451;-85
2023/03/21 15:20:36;;;;;;;10.18;3.80;;;21.40;62.80;;;;;;4768963;29;91777;-87
2023/03/21 15:23:04;;;;;;;;;;;21.40;63.30;;;;;;4768338;29;98094;-86
2023/03/21 15:25:33;;;;;;;12.27;4.13;;;21.40;63.50;;;;;;4777883;29;93375;-85
2023/03/21 15:27:59;;;;;;;8.70;3.08;;;21.30;63.50;;;;;;4778450;29;93153;-85
2023/03/21 15:30:27;;;;;;;9.98;3.22;;;21.30;63.80;;;;;;4802139;29;92238;-88
2023/03/21 15:32:55;;;;;;;11.23;3.17;;;21.30;64.30;;;;;;4796354;29;96030;-86
2023/03/21 15:35:39;;;;;;;11.10;3.53;;;21.30;64.90;;;;;;4780526;29;95362;-86
2023/03/21 15:38:05;;;;;;;11.80;3.13;;;21.20;64.90;;;;;;4787110;29;92730;-86
2023/03/21 15:40:33;;;;;;;12.07;3.63;;;21.20;64.50;;;;;;4803619;29;92532;-84
2023/03/21 15:43:18;;;;;;;13.65;3.67;;;21.20;65.30;;;;;;4751830;29;96823;-85
2023/03/21 15:45:49;;;;;;;9.55;3.05;;;21.20;65.20;;;;;;4746506;29;95099;-85
2023/03/21 15:48:19;;;;;;;11.68;3.35;;;21.20;66.00;;;;;;4746682;29;92006;-85
2023/03/21 15:51:01;;;;;;;9.20;3.30;;;21.20;66.30;;;;;;4749694;29;92158;-85
2023/03/21 15:53:32;;;;;;;10.35;3.70;;;21.20;66.20;;;;;;4763812;29;94745;-84
2023/03/21 15:56:01;;;;;;;11.57;3.15;;;21.20;65.40;;;;;;4765205;29;96266;-85
2023/03/21 15:58:40;;;;;;;;;;;21.20;65.50;;;;;;4749829;29;92660;-85
2023/03/21 16:01:16;;;;;;;11.88;3.30;;;21.20;65.70;;;;;;4747349;29;91995;-84